Terminal Aerodrome Forecast
Issued by NWS

Home | Current Version | Previous Version | Text Only | Print | Product List | Glossary On
Versions: 1 2 3 4 5 6 7 8 9 10 11 12
000
FTUS42 KMHX 281739
TAFISO
TAF
KISO 281739Z 2818/2918 22011G17KT P6SM VCSH SCT070
      TEMPO 2821/2823 4SM TS BKN020CB
     FM282300 25007KT P6SM VCSH FEW020 SCT250
     FM290300 29005KT P6SM FEW050
      AMD LTD TO CLD VIS AND WIND=

USA.gov is the U.S. government's official web portal to all federal, state and local government web resources and services.